sensor_id;sensor_type;location;lat;lon;timestamp;P1;durP1;ratioP1;P2;durP2;ratioP2
20721;SDS011;10522;52.198;9.890;2023-02-28T00:00:31;4.93;;;2.70;;
20721;SDS011;10522;52.198;9.890;2023-02-28T00:02:57;6.67;;;2.83;;
20721;SDS011;10522;52.198;9.890;2023-02-28T00:05:24;5.63;;;2.87;;
20721;SDS011;10522;52.198;9.890;2023-02-28T00:07:50;4.67;;;2.80;;
20721;SDS011;10522;52.198;9.890;2023-02-28T00:10:34;6.33;;;3.47;;
20721;SDS011;10522;52.198;9.890;2023-02-28T00:13:02;6.17;;;2.83;;
20721;SDS011;10522;52.198;9.890;2023-02-28T00:15:29;3.30;;;2.50;;
20721;SDS011;10522;52.198;9.890;2023-02-28T00:17:55;4.50;;;2.73;;
20721;SDS011;10522;52.198;9.890;2023-02-28T00:20:21;3.33;;;2.57;;
20721;SDS011;10522;52.198;9.890;2023-02-28T00:22:48;6.13;;;3.00;;
20721;SDS011;10522;52.198;9.890;2023-02-28T00:25:16;5.83;;;3.07;;
20721;SDS011;10522;52.198;9.890;2023-02-28T00:27:44;5.60;;;2.73;;
20721;SDS011;10522;52.198;9.890;2023-02-28T00:30:11;5.10;;;3.00;;
20721;SDS011;10522;52.198;9.890;2023-02-28T00:32:39;6.37;;;3.07;;
20721;SDS011;10522;52.198;9.890;2023-02-28T00:35:05;4.53;;;2.70;;
20721;SDS011;10522;52.198;9.890;2023-02-28T00:37:31;5.80;;;2.40;;
20721;SDS011;10522;52.198;9.890;2023-02-28T00:39:57;6.73;;;3.50;;
20721;SDS011;10522;52.198;9.890;2023-02-28T00:42:23;6.93;;;2.83;;
20721;SDS011;10522;52.198;9.890;2023-02-28T00:44:49;4.30;;;2.60;;
20721;SDS011;10522;52.198;9.890;2023-02-28T00:47:14;5.17;;;3.10;;
20721;SDS011;10522;52.198;9.890;2023-02-28T00:49:40;5.33;;;2.97;;
20721;SDS011;10522;52.198;9.890;2023-02-28T00:52:06;5.47;;;3.17;;
20721;SDS011;10522;52.198;9.890;2023-02-28T00:54:32;6.00;;;3.37;;
20721;SDS011;10522;52.198;9.890;2023-02-28T00:56:58;5.27;;;3.40;;
20721;SDS011;10522;52.198;9.890;2023-02-28T00:59:24;5.13;;;3.07;;
20721;SDS011;10522;52.198;9.890;2023-02-28T01:01:49;4.13;;;3.17;;
20721;SDS011;10522;52.198;9.890;2023-02-28T01:04:15;6.63;;;3.20;;
20721;SDS011;10522;52.198;9.890;2023-02-28T01:06:41;5.47;;;2.97;;
20721;SDS011;10522;52.198;9.890;2023-02-28T01:09:07;5.87;;;2.80;;
20721;SDS011;10522;52.198;9.890;2023-02-28T01:11:33;6.23;;;2.83;;
20721;SDS011;10522;52.198;9.890;2023-02-28T01:13:59;5.60;;;3.33;;
20721;SDS011;10522;52.198;9.890;2023-02-28T01:16:25;6.13;;;3.03;;
20721;SDS011;10522;52.198;9.890;2023-02-28T01:18:51;8.57;;;3.27;;
20721;SDS011;10522;52.198;9.890;2023-02-28T01:21:18;5.50;;;3.53;;
20721;SDS011;10522;52.198;9.890;2023-02-28T01:23:45;5.17;;;2.50;;
20721;SDS011;10522;52.198;9.890;2023-02-28T01:26:16;7.57;;;2.97;;
20721;SDS011;10522;52.198;9.890;2023-02-28T01:28:44;4.03;;;2.43;;
20721;SDS011;10522;52.198;9.890;2023-02-28T01:31:09;5.40;;;2.63;;
20721;SDS011;10522;52.198;9.890;2023-02-28T01:33:35;3.03;;;2.37;;
20721;SDS011;10522;52.198;9.890;2023-02-28T01:36:03;3.50;;;2.60;;
20721;SDS011;10522;52.198;9.890;2023-02-28T01:38:31;4.17;;;2.40;;
20721;SDS011;10522;52.198;9.890;2023-02-28T01:40:58;6.53;;;2.83;;
20721;SDS011;10522;52.198;9.890;2023-02-28T01:43:24;4.80;;;2.43;;
20721;SDS011;10522;52.198;9.890;2023-02-28T01:45:52;7.37;;;2.80;;
20721;SDS011;10522;52.198;9.890;2023-02-28T01:48:21;5.00;;;2.57;;
20721;SDS011;10522;52.198;9.890;2023-02-28T01:50:51;6.43;;;3.10;;
20721;SDS011;10522;52.198;9.890;2023-02-28T01:53:19;5.00;;;3.10;;
20721;SDS011;10522;52.198;9.890;2023-02-28T01:55:50;6.40;;;2.97;;
20721;SDS011;10522;52.198;9.890;2023-02-28T01:58:17;10.43;;;3.80;;
20721;SDS011;10522;52.198;9.890;2023-02-28T02:00:43;6.07;;;3.37;;
20721;SDS011;10522;52.198;9.890;2023-02-28T02:03:09;5.47;;;3.17;;
20721;SDS011;10522;52.198;9.890;2023-02-28T02:05:38;5.00;;;2.90;;
20721;SDS011;10522;52.198;9.890;2023-02-28T02:08:05;4.97;;;2.70;;
20721;SDS011;10522;52.198;9.890;2023-02-28T02:10:53;6.07;;;2.73;;
20721;SDS011;10522;52.198;9.890;2023-02-28T02:24:03;5.67;;;3.17;;
20721;SDS011;10522;52.198;9.890;2023-02-28T02:29:18;4.33;;;3.00;;
20721;SDS011;10522;52.198;9.890;2023-02-28T02:34:56;4.57;;;3.30;;
20721;SDS011;10522;52.198;9.890;2023-02-28T02:37:47;5.77;;;3.67;;
20721;SDS011;10522;52.198;9.890;2023-02-28T02:46:03;6.57;;;3.30;;
20721;SDS011;10522;52.198;9.890;2023-02-28T02:48:35;6.10;;;3.17;;
20721;SDS011;10522;52.198;9.890;2023-02-28T02:51:06;8.63;;;3.30;;
20721;SDS011;10522;52.198;9.890;2023-02-28T02:53:38;14.37;;;4.53;;
20721;SDS011;10522;52.198;9.890;2023-02-28T02:56:20;7.17;;;4.00;;
20721;SDS011;10522;52.198;9.890;2023-02-28T02:58:49;7.17;;;4.23;;
20721;SDS011;10522;52.198;9.890;2023-02-28T03:01:20;7.80;;;3.77;;
20721;SDS011;10522;52.198;9.890;2023-02-28T03:03:57;7.37;;;3.63;;
20721;SDS011;10522;52.198;9.890;2023-02-28T03:06:26;9.77;;;3.97;;
20721;SDS011;10522;52.198;9.890;2023-02-28T03:08:52;8.07;;;4.20;;
20721;SDS011;10522;52.198;9.890;2023-02-28T03:11:18;7.40;;;4.30;;
20721;SDS011;10522;52.198;9.890;2023-02-28T03:19:23;5.57;;;3.67;;
20721;SDS011;10522;52.198;9.890;2023-02-28T03:25:00;8.20;;;3.43;;
20721;SDS011;10522;52.198;9.890;2023-02-28T03:35:30;7.40;;;3.90;;
20721;SDS011;10522;52.198;9.890;2023-02-28T03:38:03;7.03;;;3.70;;
20721;SDS011;10522;52.198;9.890;2023-02-28T03:40:41;6.87;;;4.13;;
20721;SDS011;10522;52.198;9.890;2023-02-28T03:43:12;7.90;;;4.23;;
20721;SDS011;10522;52.198;9.890;2023-02-28T03:45:43;11.93;;;4.70;;
20721;SDS011;10522;52.198;9.890;2023-02-28T03:48:13;8.80;;;3.57;;
20721;SDS011;10522;52.198;9.890;2023-02-28T03:50:45;6.27;;;2.90;;
20721;SDS011;10522;52.198;9.890;2023-02-28T03:53:14;5.67;;;3.30;;
20721;SDS011;10522;52.198;9.890;2023-02-28T03:58:31;5.47;;;3.20;;
20721;SDS011;10522;52.198;9.890;2023-02-28T04:01:05;4.17;;;3.07;;
20721;SDS011;10522;52.198;9.890;2023-02-28T04:03:35;6.10;;;3.53;;
20721;SDS011;10522;52.198;9.890;2023-02-28T04:06:01;7.07;;;3.43;;
20721;SDS011;10522;52.198;9.890;2023-02-28T04:08:27;4.40;;;3.03;;
20721;SDS011;10522;52.198;9.890;2023-02-28T04:10:54;5.13;;;3.10;;
20721;SDS011;10522;52.198;9.890;2023-02-28T04:13:25;4.83;;;2.90;;
20721;SDS011;10522;52.198;9.890;2023-02-28T04:15:51;4.83;;;3.37;;
20721;SDS011;10522;52.198;9.890;2023-02-28T04:18:16;4.73;;;3.20;;
20721;SDS011;10522;52.198;9.890;2023-02-28T04:20:42;3.83;;;2.77;;
20721;SDS011;10522;52.198;9.890;2023-02-28T04:23:07;9.57;;;3.97;;
20721;SDS011;10522;52.198;9.890;2023-02-28T04:25:33;7.40;;;3.97;;
20721;SDS011;10522;52.198;9.890;2023-02-28T04:27:58;10.50;;;3.23;;
20721;SDS011;10522;52.198;9.890;2023-02-28T04:30:24;7.07;;;3.67;;
20721;SDS011;10522;52.198;9.890;2023-02-28T04:32:50;7.57;;;3.87;;
20721;SDS011;10522;52.198;9.890;2023-02-28T04:35:15;6.93;;;3.53;;
20721;SDS011;10522;52.198;9.890;2023-02-28T04:37:41;8.63;;;3.60;;
20721;SDS011;10522;52.198;9.890;2023-02-28T04:40:07;5.87;;;3.80;;
20721;SDS011;10522;52.198;9.890;2023-02-28T04:42:33;5.87;;;3.53;;
20721;SDS011;10522;52.198;9.890;2023-02-28T04:45:01;3.87;;;3.33;;
20721;SDS011;10522;52.198;9.890;2023-02-28T04:47:28;5.47;;;3.30;;
20721;SDS011;10522;52.198;9.890;2023-02-28T04:49:54;8.63;;;3.80;;
20721;SDS011;10522;52.198;9.890;2023-02-28T04:52:19;6.27;;;3.40;;
20721;SDS011;10522;52.198;9.890;2023-02-28T04:54:45;6.93;;;4.20;;
20721;SDS011;10522;52.198;9.890;2023-02-28T04:57:10;10.20;;;4.97;;
20721;SDS011;10522;52.198;9.890;2023-02-28T04:59:36;10.93;;;3.97;;
20721;SDS011;10522;52.198;9.890;2023-02-28T05:02:03;5.87;;;4.10;;
20721;SDS011;10522;52.198;9.890;2023-02-28T05:04:32;8.27;;;4.60;;
20721;SDS011;10522;52.198;9.890;2023-02-28T05:06:59;5.83;;;3.97;;
20721;SDS011;10522;52.198;9.890;2023-02-28T05:09:25;6.70;;;4.17;;
20721;SDS011;10522;52.198;9.890;2023-02-28T05:11:50;7.97;;;4.10;;
20721;SDS011;10522;52.198;9.890;2023-02-28T05:14:16;7.27;;;4.33;;
20721;SDS011;10522;52.198;9.890;2023-02-28T05:16:42;9.37;;;4.17;;
20721;SDS011;10522;52.198;9.890;2023-02-28T05:19:09;6.30;;;3.40;;
20721;SDS011;10522;52.198;9.890;2023-02-28T05:21:36;6.57;;;3.73;;
20721;SDS011;10522;52.198;9.890;2023-02-28T05:24:05;4.90;;;3.23;;
20721;SDS011;10522;52.198;9.890;2023-02-28T05:26:34;5.30;;;3.63;;
20721;SDS011;10522;52.198;9.890;2023-02-28T05:29:01;5.93;;;3.67;;
20721;SDS011;10522;52.198;9.890;2023-02-28T05:31:27;6.13;;;3.73;;
20721;SDS011;10522;52.198;9.890;2023-02-28T05:33:53;5.87;;;3.43;;
20721;SDS011;10522;52.198;9.890;2023-02-28T05:36:19;7.03;;;3.67;;
20721;SDS011;10522;52.198;9.890;2023-02-28T05:38:46;5.37;;;3.33;;
20721;SDS011;10522;52.198;9.890;2023-02-28T05:41:13;6.63;;;3.83;;
20721;SDS011;10522;52.198;9.890;2023-02-28T05:43:39;6.27;;;3.53;;
20721;SDS011;10522;52.198;9.890;2023-02-28T05:46:08;5.67;;;3.73;;
20721;SDS011;10522;52.198;9.890;2023-02-28T05:48:35;6.20;;;3.50;;
20721;SDS011;10522;52.198;9.890;2023-02-28T05:51:02;6.20;;;3.67;;
20721;SDS011;10522;52.198;9.890;2023-02-28T05:53:29;6.07;;;3.93;;
20721;SDS011;10522;52.198;9.890;2023-02-28T05:55:55;4.37;;;3.40;;
20721;SDS011;10522;52.198;9.890;2023-02-28T05:58:21;9.07;;;4.30;;
20721;SDS011;10522;52.198;9.890;2023-02-28T06:00:47;4.73;;;3.70;;
20721;SDS011;10522;52.198;9.890;2023-02-28T06:03:13;8.03;;;4.63;;
20721;SDS011;10522;52.198;9.890;2023-02-28T06:05:38;7.57;;;4.87;;
20721;SDS011;10522;52.198;9.890;2023-02-28T06:08:04;7.47;;;4.03;;
20721;SDS011;10522;52.198;9.890;2023-02-28T06:10:32;11.00;;;4.33;;
20721;SDS011;10522;52.198;9.890;2023-02-28T06:13:02;9.93;;;3.97;;
20721;SDS011;10522;52.198;9.890;2023-02-28T06:15:28;8.13;;;3.70;;
20721;SDS011;10522;52.198;9.890;2023-02-28T06:17:55;6.33;;;3.53;;
20721;SDS011;10522;52.198;9.890;2023-02-28T06:20:21;11.60;;;5.80;;
20721;SDS011;10522;52.198;9.890;2023-02-28T06:22:48;15.63;;;9.17;;
20721;SDS011;10522;52.198;9.890;2023-02-28T06:25:15;10.77;;;5.50;;
20721;SDS011;10522;52.198;9.890;2023-02-28T06:27:41;8.57;;;4.40;;
20721;SDS011;10522;52.198;9.890;2023-02-28T06:30:08;8.60;;;4.30;;
20721;SDS011;10522;52.198;9.890;2023-02-28T06:32:34;12.80;;;5.07;;
20721;SDS011;10522;52.198;9.890;2023-02-28T06:35:00;8.17;;;4.90;;
20721;SDS011;10522;52.198;9.890;2023-02-28T06:37:27;10.80;;;6.23;;
20721;SDS011;10522;52.198;9.890;2023-02-28T06:39:53;10.67;;;6.10;;
20721;SDS011;10522;52.198;9.890;2023-02-28T06:42:20;9.30;;;5.60;;
20721;SDS011;10522;52.198;9.890;2023-02-28T06:44:47;8.13;;;4.87;;
20721;SDS011;10522;52.198;9.890;2023-02-28T06:47:13;7.70;;;5.20;;
20721;SDS011;10522;52.198;9.890;2023-02-28T06:49:38;9.60;;;5.33;;
20721;SDS011;10522;52.198;9.890;2023-02-28T06:52:04;9.80;;;5.00;;
20721;SDS011;10522;52.198;9.890;2023-02-28T06:54:30;11.73;;;5.50;;
20721;SDS011;10522;52.198;9.890;2023-02-28T06:56:57;10.23;;;5.40;;
20721;SDS011;10522;52.198;9.890;2023-02-28T06:59:23;8.47;;;5.27;;
20721;SDS011;10522;52.198;9.890;2023-02-28T07:01:48;10.00;;;5.60;;
20721;SDS011;10522;52.198;9.890;2023-02-28T07:04:14;18.93;;;10.40;;
20721;SDS011;10522;52.198;9.890;2023-02-28T07:06:40;16.00;;;8.63;;
20721;SDS011;10522;52.198;9.890;2023-02-28T07:09:05;11.90;;;7.87;;
20721;SDS011;10522;52.198;9.890;2023-02-28T07:11:31;19.73;;;10.10;;
20721;SDS011;10522;52.198;9.890;2023-02-28T07:13:57;22.43;;;11.40;;
20721;SDS011;10522;52.198;9.890;2023-02-28T07:16:23;21.57;;;10.57;;
20721;SDS011;10522;52.198;9.890;2023-02-28T07:18:51;23.00;;;10.20;;
20721;SDS011;10522;52.198;9.890;2023-02-28T07:21:18;20.07;;;9.97;;
20721;SDS011;10522;52.198;9.890;2023-02-28T07:23:44;19.57;;;10.53;;
20721;SDS011;10522;52.198;9.890;2023-02-28T07:26:12;13.60;;;7.77;;
20721;SDS011;10522;52.198;9.890;2023-02-28T07:28:39;21.17;;;9.27;;
20721;SDS011;10522;52.198;9.890;2023-02-28T07:31:08;19.17;;;9.37;;
20721;SDS011;10522;52.198;9.890;2023-02-28T07:33:34;20.53;;;9.90;;
20721;SDS011;10522;52.198;9.890;2023-02-28T07:36:03;22.73;;;11.43;;
20721;SDS011;10522;52.198;9.890;2023-02-28T07:38:30;17.73;;;9.73;;
20721;SDS011;10522;52.198;9.890;2023-02-28T07:40:58;15.27;;;7.50;;
20721;SDS011;10522;52.198;9.890;2023-02-28T07:43:24;12.67;;;6.23;;
20721;SDS011;10522;52.198;9.890;2023-02-28T07:45:50;14.03;;;6.60;;
20721;SDS011;10522;52.198;9.890;2023-02-28T07:48:15;12.07;;;6.20;;
20721;SDS011;10522;52.198;9.890;2023-02-28T07:50:44;10.73;;;6.43;;
20721;SDS011;10522;52.198;9.890;2023-02-28T07:53:13;13.03;;;6.63;;
20721;SDS011;10522;52.198;9.890;2023-02-28T07:55:38;13.60;;;6.87;;
20721;SDS011;10522;52.198;9.890;2023-02-28T07:58:04;12.97;;;6.83;;
20721;SDS011;10522;52.198;9.890;2023-02-28T08:00:33;11.67;;;7.30;;
20721;SDS011;10522;52.198;9.890;2023-02-28T08:02:59;12.10;;;6.80;;
20721;SDS011;10522;52.198;9.890;2023-02-28T08:05:25;9.23;;;6.03;;
20721;SDS011;10522;52.198;9.890;2023-02-28T08:07:50;7.93;;;6.07;;
20721;SDS011;10522;52.198;9.890;2023-02-28T08:10:16;7.60;;;5.00;;
20721;SDS011;10522;52.198;9.890;2023-02-28T08:12:42;12.20;;;5.93;;
20721;SDS011;10522;52.198;9.890;2023-02-28T08:15:07;11.43;;;6.47;;
20721;SDS011;10522;52.198;9.890;2023-02-28T08:17:33;11.57;;;6.23;;
20721;SDS011;10522;52.198;9.890;2023-02-28T08:19:59;13.43;;;6.83;;
20721;SDS011;10522;52.198;9.890;2023-02-28T08:22:24;9.67;;;6.17;;
20721;SDS011;10522;52.198;9.890;2023-02-28T08:24:50;8.93;;;5.67;;
20721;SDS011;10522;52.198;9.890;2023-02-28T08:27:16;10.83;;;5.83;;
20721;SDS011;10522;52.198;9.890;2023-02-28T08:29:42;11.40;;;6.20;;
20721;SDS011;10522;52.198;9.890;2023-02-28T08:32:07;11.93;;;5.77;;
20721;SDS011;10522;52.198;9.890;2023-02-28T08:34:33;10.70;;;5.10;;
20721;SDS011;10522;52.198;9.890;2023-02-28T08:36:59;8.83;;;5.60;;
20721;SDS011;10522;52.198;9.890;2023-02-28T08:39:25;9.63;;;5.20;;
20721;SDS011;10522;52.198;9.890;2023-02-28T08:41:50;11.90;;;5.60;;
20721;SDS011;10522;52.198;9.890;2023-02-28T08:44:16;10.57;;;5.30;;
20721;SDS011;10522;52.198;9.890;2023-02-28T08:46:42;8.50;;;4.90;;
20721;SDS011;10522;52.198;9.890;2023-02-28T08:49:09;10.70;;;5.03;;
20721;SDS011;10522;52.198;9.890;2023-02-28T08:51:35;9.60;;;5.20;;
20721;SDS011;10522;52.198;9.890;2023-02-28T08:54:01;9.33;;;4.80;;
20721;SDS011;10522;52.198;9.890;2023-02-28T08:56:27;7.67;;;4.37;;
20721;SDS011;10522;52.198;9.890;2023-02-28T08:58:54;7.57;;;4.53;;
20721;SDS011;10522;52.198;9.890;2023-02-28T09:01:22;7.93;;;3.90;;
20721;SDS011;10522;52.198;9.890;2023-02-28T09:03:50;6.50;;;4.13;;
20721;SDS011;10522;52.198;9.890;2023-02-28T09:06:16;7.77;;;3.93;;
20721;SDS011;10522;52.198;9.890;2023-02-28T09:08:43;9.70;;;3.97;;
20721;SDS011;10522;52.198;9.890;2023-02-28T09:11:09;6.27;;;3.73;;
20721;SDS011;10522;52.198;9.890;2023-02-28T09:13:35;6.83;;;3.80;;
20721;SDS011;10522;52.198;9.890;2023-02-28T09:16:02;5.53;;;3.90;;
20721;SDS011;10522;52.198;9.890;2023-02-28T09:18:29;5.40;;;3.30;;
20721;SDS011;10522;52.198;9.890;2023-02-28T09:20:55;4.10;;;3.10;;
20721;SDS011;10522;52.198;9.890;2023-02-28T09:23:21;8.67;;;4.67;;
20721;SDS011;10522;52.198;9.890;2023-02-28T09:28:13;6.87;;;3.23;;
20721;SDS011;10522;52.198;9.890;2023-02-28T09:30:47;6.40;;;3.77;;
20721;SDS011;10522;52.198;9.890;2023-02-28T09:33:15;4.97;;;3.27;;
20721;SDS011;10522;52.198;9.890;2023-02-28T09:35:41;7.40;;;3.27;;
20721;SDS011;10522;52.198;9.890;2023-02-28T09:38:07;7.80;;;3.83;;
20721;SDS011;10522;52.198;9.890;2023-02-28T09:40:38;6.97;;;3.63;;
20721;SDS011;10522;52.198;9.890;2023-02-28T09:43:12;4.53;;;2.63;;
20721;SDS011;10522;52.198;9.890;2023-02-28T09:45:40;8.83;;;3.50;;
20721;SDS011;10522;52.198;9.890;2023-02-28T09:48:21;4.77;;;3.00;;
20721;SDS011;10522;52.198;9.890;2023-02-28T09:51:00;3.90;;;2.80;;
20721;SDS011;10522;52.198;9.890;2023-02-28T09:53:33;6.63;;;2.80;;
20721;SDS011;10522;52.198;9.890;2023-02-28T09:56:08;5.13;;;3.37;;
20721;SDS011;10522;52.198;9.890;2023-02-28T09:58:49;5.13;;;2.77;;
20721;SDS011;10522;52.198;9.890;2023-02-28T10:12:59;4.50;;;2.70;;
20721;SDS011;10522;52.198;9.890;2023-02-28T10:15:29;6.50;;;2.83;;
20721;SDS011;10522;52.198;9.890;2023-02-28T10:17:58;4.77;;;3.07;;
20721;SDS011;10522;52.198;9.890;2023-02-28T10:20:28;5.13;;;2.97;;
20721;SDS011;10522;52.198;9.890;2023-02-28T10:25:32;5.07;;;2.93;;
20721;SDS011;10522;52.198;9.890;2023-02-28T10:28:05;5.90;;;3.00;;
20721;SDS011;10522;52.198;9.890;2023-02-28T10:30:34;3.63;;;2.70;;
20721;SDS011;10522;52.198;9.890;2023-02-28T10:33:02;3.97;;;2.97;;
20721;SDS011;10522;52.198;9.890;2023-02-28T10:35:28;4.20;;;2.53;;
20721;SDS011;10522;52.198;9.890;2023-02-28T10:37:55;6.27;;;3.70;;
20721;SDS011;10522;52.198;9.890;2023-02-28T10:42:55;4.03;;;2.77;;
20721;SDS011;10522;52.198;9.890;2023-02-28T10:45:21;6.17;;;3.40;;
20721;SDS011;10522;52.198;9.890;2023-02-28T10:56:05;7.13;;;3.23;;
20721;SDS011;10522;52.198;9.890;2023-02-28T10:58:49;4.13;;;2.97;;
20721;SDS011;10522;52.198;9.890;2023-02-28T11:04:18;4.60;;;2.80;;
20721;SDS011;10522;52.198;9.890;2023-02-28T11:06:44;5.23;;;3.17;;
20721;SDS011;10522;52.198;9.890;2023-02-28T11:09:25;8.90;;;3.70;;
20721;SDS011;10522;52.198;9.890;2023-02-28T11:11:54;11.67;;;3.33;;
20721;SDS011;10522;52.198;9.890;2023-02-28T11:14:21;5.87;;;2.73;;
20721;SDS011;10522;52.198;9.890;2023-02-28T11:16:50;6.07;;;2.90;;
20721;SDS011;10522;52.198;9.890;2023-02-28T11:19:20;3.93;;;2.70;;
20721;SDS011;10522;52.198;9.890;2023-02-28T11:21:53;5.77;;;3.07;;
20721;SDS011;10522;52.198;9.890;2023-02-28T11:24:29;6.43;;;2.77;;
20721;SDS011;10522;52.198;9.890;2023-02-28T11:26:58;6.60;;;3.20;;
20721;SDS011;10522;52.198;9.890;2023-02-28T11:29:25;6.93;;;2.73;;
20721;SDS011;10522;52.198;9.890;2023-02-28T11:32:04;5.70;;;3.00;;
20721;SDS011;10522;52.198;9.890;2023-02-28T11:34:30;4.83;;;2.90;;
20721;SDS011;10522;52.198;9.890;2023-02-28T11:36:57;3.83;;;2.50;;
20721;SDS011;10522;52.198;9.890;2023-02-28T11:39:26;3.63;;;2.63;;
20721;SDS011;10522;52.198;9.890;2023-02-28T11:50:16;5.97;;;2.33;;
20721;SDS011;10522;52.198;9.890;2023-02-28T11:53:10;4.97;;;2.73;;
20721;SDS011;10522;52.198;9.890;2023-02-28T11:56:02;4.67;;;2.77;;
20721;SDS011;10522;52.198;9.890;2023-02-28T12:01:56;9.83;;;2.93;;
20721;SDS011;10522;52.198;9.890;2023-02-28T12:04:01;2.73;;;2.00;;
20721;SDS011;10522;52.198;9.890;2023-02-28T12:09:24;8.90;;;2.93;;
20721;SDS011;10522;52.198;9.890;2023-02-28T12:12:15;6.13;;;2.30;;
20721;SDS011;10522;52.198;9.890;2023-02-28T12:23:00;2.90;;;2.27;;
20721;SDS011;10522;52.198;9.890;2023-02-28T12:28:10;5.97;;;2.80;;
20721;SDS011;10522;52.198;9.890;2023-02-28T12:30:41;4.63;;;2.00;;
20721;SDS011;10522;52.198;9.890;2023-02-28T12:33:14;6.07;;;2.10;;
20721;SDS011;10522;52.198;9.890;2023-02-28T12:35:50;5.60;;;2.37;;
20721;SDS011;10522;52.198;9.890;2023-02-28T12:43:32;3.63;;;2.20;;
20721;SDS011;10522;52.198;9.890;2023-02-28T12:46:16;4.50;;;2.13;;
20721;SDS011;10522;52.198;9.890;2023-02-28T12:48:48;4.83;;;2.63;;
20721;SDS011;10522;52.198;9.890;2023-02-28T12:51:20;6.27;;;2.10;;
20721;SDS011;10522;52.198;9.890;2023-02-28T13:07:36;5.93;;;2.13;;
20721;SDS011;10522;52.198;9.890;2023-02-28T13:10:07;4.03;;;2.10;;
20721;SDS011;10522;52.198;9.890;2023-02-28T13:12:34;5.00;;;2.00;;
20721;SDS011;10522;52.198;9.890;2023-02-28T13:15:08;4.07;;;2.40;;
20721;SDS011;10522;52.198;9.890;2023-02-28T13:17:54;3.83;;;2.57;;
20721;SDS011;10522;52.198;9.890;2023-02-28T13:20:23;3.40;;;1.87;;
20721;SDS011;10522;52.198;9.890;2023-02-28T13:23:01;3.73;;;1.90;;
20721;SDS011;10522;52.198;9.890;2023-02-28T13:27:59;4.33;;;2.20;;
20721;SDS011;10522;52.198;9.890;2023-02-28T13:33:34;3.43;;;2.43;;
20721;SDS011;10522;52.198;9.890;2023-02-28T14:06:08;3.43;;;2.20;;
20721;SDS011;10522;52.198;9.890;2023-02-28T14:08:52;4.60;;;2.40;;
20721;SDS011;10522;52.198;9.890;2023-02-28T14:11:28;4.13;;;2.30;;
20721;SDS011;10522;52.198;9.890;2023-02-28T14:13:59;7.77;;;2.30;;
20721;SDS011;10522;52.198;9.890;2023-02-28T14:16:26;3.00;;;2.30;;
20721;SDS011;10522;52.198;9.890;2023-02-28T14:19:43;3.83;;;2.20;;
20721;SDS011;10522;52.198;9.890;2023-02-28T14:22:16;5.50;;;2.80;;
20721;SDS011;10522;52.198;9.890;2023-02-28T14:27:58;3.40;;;2.20;;
20721;SDS011;10522;52.198;9.890;2023-02-28T14:36:40;3.60;;;2.23;;
20721;SDS011;10522;52.198;9.890;2023-02-28T14:39:23;4.47;;;2.80;;
20721;SDS011;10522;52.198;9.890;2023-02-28T14:41:56;4.00;;;2.43;;
20721;SDS011;10522;52.198;9.890;2023-02-28T14:44:33;4.10;;;2.27;;
20721;SDS011;10522;52.198;9.890;2023-02-28T14:47:02;2.67;;;2.07;;
20721;SDS011;10522;52.198;9.890;2023-02-28T14:57:26;2.97;;;2.23;;
20721;SDS011;10522;52.198;9.890;2023-02-28T15:00:00;2.43;;;2.17;;
20721;SDS011;10522;52.198;9.890;2023-02-28T15:02:59;6.73;;;2.87;;
20721;SDS011;10522;52.198;9.890;2023-02-28T15:05:33;4.77;;;2.70;;
20721;SDS011;10522;52.198;9.890;2023-02-28T15:08:09;4.03;;;2.63;;
20721;SDS011;10522;52.198;9.890;2023-02-28T15:10:42;6.23;;;2.43;;
20721;SDS011;10522;52.198;9.890;2023-02-28T15:13:13;3.93;;;2.47;;
20721;SDS011;10522;52.198;9.890;2023-02-28T15:15:41;3.70;;;2.77;;
20721;SDS011;10522;52.198;9.890;2023-02-28T15:18:14;5.77;;;3.00;;
20721;SDS011;10522;52.198;9.890;2023-02-28T15:20:47;3.00;;;2.50;;
20721;SDS011;10522;52.198;9.890;2023-02-28T15:23:12;5.80;;;3.20;;
20721;SDS011;10522;52.198;9.890;2023-02-28T15:25:40;6.70;;;3.10;;
20721;SDS011;10522;52.198;9.890;2023-02-28T15:28:09;4.23;;;3.23;;
20721;SDS011;10522;52.198;9.890;2023-02-28T15:30:49;5.07;;;2.73;;
20721;SDS011;10522;52.198;9.890;2023-02-28T15:33:22;6.87;;;3.30;;
20721;SDS011;10522;52.198;9.890;2023-02-28T15:35:50;7.20;;;3.40;;
20721;SDS011;10522;52.198;9.890;2023-02-28T15:38:24;5.47;;;2.40;;
20721;SDS011;10522;52.198;9.890;2023-02-28T15:40:52;3.80;;;2.53;;
20721;SDS011;10522;52.198;9.890;2023-02-28T15:43:31;2.83;;;2.40;;
20721;SDS011;10522;52.198;9.890;2023-02-28T15:46:05;2.93;;;2.30;;
20721;SDS011;10522;52.198;9.890;2023-02-28T15:48:52;5.50;;;3.10;;
20721;SDS011;10522;52.198;9.890;2023-02-28T15:51:20;3.73;;;2.70;;
20721;SDS011;10522;52.198;9.890;2023-02-28T15:53:59;7.20;;;3.00;;
20721;SDS011;10522;52.198;9.890;2023-02-28T15:56:31;3.90;;;2.70;;
20721;SDS011;10522;52.198;9.890;2023-02-28T15:58:59;4.93;;;2.70;;
20721;SDS011;10522;52.198;9.890;2023-02-28T16:01:29;5.13;;;2.50;;
20721;SDS011;10522;52.198;9.890;2023-02-28T16:03:59;5.83;;;2.63;;
20721;SDS011;10522;52.198;9.890;2023-02-28T16:09:01;6.47;;;2.90;;
20721;SDS011;10522;52.198;9.890;2023-02-28T16:11:29;5.73;;;2.90;;
20721;SDS011;10522;52.198;9.890;2023-02-28T16:13:57;5.67;;;2.87;;
20721;SDS011;10522;52.198;9.890;2023-02-28T16:16:24;6.47;;;3.40;;
20721;SDS011;10522;52.198;9.890;2023-02-28T16:18:51;5.60;;;3.63;;
20721;SDS011;10522;52.198;9.890;2023-02-28T16:21:17;7.17;;;3.80;;
20721;SDS011;10522;52.198;9.890;2023-02-28T16:23:42;5.37;;;3.33;;
20721;SDS011;10522;52.198;9.890;2023-02-28T16:26:09;3.90;;;3.23;;
20721;SDS011;10522;52.198;9.890;2023-02-28T16:28:48;6.57;;;2.90;;
20721;SDS011;10522;52.198;9.890;2023-02-28T16:31:14;5.87;;;3.00;;
20721;SDS011;10522;52.198;9.890;2023-02-28T16:33:41;11.33;;;3.00;;
20721;SDS011;10522;52.198;9.890;2023-02-28T16:36:16;4.40;;;2.67;;
20721;SDS011;10522;52.198;9.890;2023-02-28T16:38:43;5.07;;;3.13;;
20721;SDS011;10522;52.198;9.890;2023-02-28T16:41:12;5.40;;;2.80;;
20721;SDS011;10522;52.198;9.890;2023-02-28T16:43:43;5.37;;;3.30;;
20721;SDS011;10522;52.198;9.890;2023-02-28T16:46:11;6.67;;;4.10;;
20721;SDS011;10522;52.198;9.890;2023-02-28T16:48:37;7.90;;;4.30;;
20721;SDS011;10522;52.198;9.890;2023-02-28T16:51:04;5.97;;;3.80;;
20721;SDS011;10522;52.198;9.890;2023-02-28T16:53:30;6.87;;;4.50;;
20721;SDS011;10522;52.198;9.890;2023-02-28T16:55:56;6.53;;;3.80;;
20721;SDS011;10522;52.198;9.890;2023-02-28T16:58:22;8.43;;;4.20;;
20721;SDS011;10522;52.198;9.890;2023-02-28T17:00:50;8.13;;;4.70;;
20721;SDS011;10522;52.198;9.890;2023-02-28T17:03:24;10.40;;;5.83;;
20721;SDS011;10522;52.198;9.890;2023-02-28T17:05:51;8.33;;;4.77;;
20721;SDS011;10522;52.198;9.890;2023-02-28T17:08:17;13.10;;;6.40;;
20721;SDS011;10522;52.198;9.890;2023-02-28T17:10:43;16.83;;;10.80;;
20721;SDS011;10522;52.198;9.890;2023-02-28T17:13:08;15.47;;;9.70;;
20721;SDS011;10522;52.198;9.890;2023-02-28T17:15:34;13.80;;;8.10;;
20721;SDS011;10522;52.198;9.890;2023-02-28T17:18:01;12.00;;;6.93;;
20721;SDS011;10522;52.198;9.890;2023-02-28T17:20:27;10.53;;;6.90;;
20721;SDS011;10522;52.198;9.890;2023-02-28T17:22:53;10.10;;;5.80;;
20721;SDS011;10522;52.198;9.890;2023-02-28T17:25:19;11.53;;;6.80;;
20721;SDS011;10522;52.198;9.890;2023-02-28T17:27:46;10.27;;;6.80;;
20721;SDS011;10522;52.198;9.890;2023-02-28T17:32:42;9.73;;;6.07;;
20721;SDS011;10522;52.198;9.890;2023-02-28T17:35:09;9.00;;;6.20;;
20721;SDS011;10522;52.198;9.890;2023-02-28T17:37:35;11.97;;;5.63;;
20721;SDS011;10522;52.198;9.890;2023-02-28T17:40:01;8.67;;;5.10;;
20721;SDS011;10522;52.198;9.890;2023-02-28T17:42:27;8.23;;;5.40;;
20721;SDS011;10522;52.198;9.890;2023-02-28T17:44:53;11.20;;;6.50;;
20721;SDS011;10522;52.198;9.890;2023-02-28T17:47:18;8.67;;;5.63;;
20721;SDS011;10522;52.198;9.890;2023-02-28T17:49:44;9.87;;;5.80;;